Time;durP1;ratioP1;P1;durP2;ratioP2;P2;SDS_P1;SDS_P2;PMS_P1;PMS_P2;Temp;Humidity;BMP_temperature;BMP_pressure;BME280_temperature;BME280_humidity;BME280_pressure;Samples;Min_cycle;Max_cycle;Signal;HPM_P1;HPM_P2
2022/05/07 00:00:22;;;;;;;19.10;12.75;;;;;;;;;;5093835;28;20027;-40
2022/05/07 00:02:47;;;;;;;18.35;12.20;;;;;;;;;;5093933;28;20128;-40
2022/05/07 00:05:13;;;;;;;21.05;13.05;;;;;;;;;;5093929;28;20350;-40
2022/05/07 00:07:38;;;;;;;14.75;10.68;;;;;;;;;;5093814;28;20012;-40
2022/05/07 00:10:03;;;;;;;15.50;11.00;;;;;;;;;;5093510;28;20046;-40
2022/05/07 00:12:29;;;;;;;19.52;12.10;;;;;;;;;;5093752;28;20356;-40
2022/05/07 00:14:54;;;;;;;20.10;11.45;;;;;;;;;;5093624;28;20146;-40
2022/05/07 00:20:03;;;;;;;17.75;12.55;;;;;;;;;;5093511;28;20019;-40
2022/05/07 00:22:28;;;;;;;15.23;11.93;;;;;;;;;;5093378;28;20358;-42
2022/05/07 00:24:54;;;;;;;16.63;11.27;;;;;;;;;;5093336;28;20091;-40
2022/05/07 00:27:20;;;;;;;17.65;11.48;;;;;;;;;;5093288;28;20082;-40
2022/05/07 00:29:45;;;;;;;19.83;12.23;;;;;;;;;;5093487;28;20007;-40
2022/05/07 00:32:10;;;;;;;19.27;12.75;;;;;;;;;;5093445;28;20016;-40
2022/05/07 00:34:35;;;;;;;17.25;13.38;;;;;;;;;;5093220;28;20016;-40
2022/05/07 00:37:01;;;;;;;17.00;12.18;;;;;;;;;;5093163;28;20028;-41
2022/05/07 00:39:26;;;;;;;16.52;12.77;;;;;;;;;;5091572;28;20015;-40
2022/05/07 00:41:52;;;;;;;17.60;11.85;;;;;;;;;;5093331;28;20024;-40
2022/05/07 00:44:17;;;;;;;17.83;11.50;;;;;;;;;;5093047;28;20030;-40
2022/05/07 00:46:44;;;;;;;15.35;11.07;;;;;;;;;;5093834;28;20106;-40
2022/05/07 00:49:09;;;;;;;19.55;12.40;;;;;;;;;;5093148;28;20016;-40
2022/05/07 00:51:34;;;;;;;15.05;11.68;;;;;;;;;;5092990;28;20012;-40
2022/05/07 00:54:03;;;;;;;19.73;11.32;;;;;;;;;;5093074;28;20044;-40
2022/05/07 00:56:29;;;;;;;14.90;11.30;;;;;;;;;;5092933;28;20052;-40
2022/05/07 00:58:54;;;;;;;15.98;11.63;;;;;;;;;;5093494;28;20020;-40
2022/05/07 01:01:20;;;;;;;15.38;11.82;;;;;;;;;;5098470;28;20438;-40
2022/05/07 01:03:46;;;;;;;16.30;10.98;;;;;;;;;;5099751;28;20507;-40
2022/05/07 01:06:11;;;;;;;16.73;12.07;;;;;;;;;;5099662;28;20019;-40
2022/05/07 01:08:37;;;;;;;16.45;11.80;;;;;;;;;;5099449;28;20039;-40
2022/05/07 01:11:02;;;;;;;16.42;10.63;;;;;;;;;;5099596;28;20069;-40
2022/05/07 01:13:28;;;;;;;14.23;10.82;;;;;;;;;;5099746;28;20019;-40
2022/05/07 01:15:54;;;;;;;17.48;12.93;;;;;;;;;;5099751;28;20054;-40
2022/05/07 01:18:19;;;;;;;17.88;11.90;;;;;;;;;;5099690;28;20016;-40
2022/05/07 01:20:45;;;;;;;21.27;12.02;;;;;;;;;;5099663;28;20027;-40
2022/05/07 01:23:10;;;;;;;14.70;11.80;;;;;;;;;;5099722;28;20023;-40
2022/05/07 01:25:35;;;;;;;12.48;10.15;;;;;;;;;;5099399;28;20022;-40
2022/05/07 01:28:01;;;;;;;16.60;11.27;;;;;;;;;;5099677;28;20434;-40
2022/05/07 01:30:26;;;;;;;18.42;12.05;;;;;;;;;;5099299;28;20053;-40
2022/05/07 01:32:52;;;;;;;21.73;12.65;;;;;;;;;;5099578;28;20027;-40
2022/05/07 01:35:17;;;;;;;17.08;11.75;;;;;;;;;;5099309;28;20445;-41
2022/05/07 01:37:42;;;;;;;18.65;11.98;;;;;;;;;;5099373;28;20028;-41
2022/05/07 01:40:08;;;;;;;13.40;10.93;;;;;;;;;;5099273;28;20020;-40
2022/05/07 01:42:33;;;;;;;20.33;11.55;;;;;;;;;;5099561;28;20016;-40
2022/05/07 01:44:58;;;;;;;16.52;11.70;;;;;;;;;;5099499;28;20023;-40
2022/05/07 01:50:08;;;;;;;18.90;12.43;;;;;;;;;;5099270;28;20027;-40
2022/05/07 01:52:33;;;;;;;22.35;13.55;;;;;;;;;;5097914;28;20016;-40
2022/05/07 01:54:58;;;;;;;19.98;12.90;;;;;;;;;;5099444;28;20012;-40
2022/05/07 01:57:23;;;;;;;17.73;12.43;;;;;;;;;;5099032;28;20040;-40
2022/05/07 01:59:49;;;;;;;24.77;13.43;;;;;;;;;;5099298;28;20023;-40
2022/05/07 02:02:14;;;;;;;15.57;11.75;;;;;;;;;;5099170;28;20366;-40
2022/05/07 02:04:39;;;;;;;15.82;12.85;;;;;;;;;;5099210;28;20041;-40
2022/05/07 02:07:05;;;;;;;18.50;12.40;;;;;;;;;;5098984;28;20442;-40
2022/05/07 02:09:30;;;;;;;17.25;11.93;;;;;;;;;;5099142;28;20410;-40
2022/05/07 02:11:56;;;;;;;16.77;12.30;;;;;;;;;;5096163;28;20473;-40
2022/05/07 02:14:21;;;;;;;16.85;11.45;;;;;;;;;;5096267;28;20019;-40
2022/05/07 02:16:46;;;;;;;16.92;12.73;;;;;;;;;;5095862;28;20190;-40
2022/05/07 02:19:12;;;;;;;14.90;10.97;;;;;;;;;;5095757;28;20008;-40
2022/05/07 02:21:37;;;;;;;20.08;12.15;;;;;;;;;;5095696;28;20236;-40
2022/05/07 02:24:02;;;;;;;19.23;12.63;;;;;;;;;;5095823;28;20024;-40
2022/05/07 02:26:28;;;;;;;18.70;12.20;;;;;;;;;;5094489;28;20263;-40
2022/05/07 02:28:53;;;;;;;15.10;12.25;;;;;;;;;;5095766;28;20348;-40
2022/05/07 02:31:19;;;;;;;16.90;12.02;;;;;;;;;;5095436;28;20048;-40
2022/05/07 02:33:44;;;;;;;20.92;12.95;;;;;;;;;;5095672;28;20015;-40
2022/05/07 02:36:09;;;;;;;18.73;13.10;;;;;;;;;;5095404;28;20148;-40
2022/05/07 02:38:36;;;;;;;17.65;12.45;;;;;;;;;;5095254;28;20435;-40
2022/05/07 02:43:45;;;;;;;17.58;11.73;;;;;;;;;;5095453;28;20366;-40
2022/05/07 02:46:10;;;;;;;19.30;13.68;;;;;;;;;;5095407;28;20016;-40
2022/05/07 02:48:36;;;;;;;18.27;12.88;;;;;;;;;;5095286;28;20044;-40
2022/05/07 02:51:04;;;;;;;19.27;12.32;;;;;;;;;;5095110;28;20008;-40
2022/05/07 02:53:29;;;;;;;16.42;11.63;;;;;;;;;;5095329;28;20031;-40
2022/05/07 02:55:55;;;;;;;20.92;12.15;;;;;;;;;;5095080;28;20040;-40
2022/05/07 02:58:20;;;;;;;18.67;12.20;;;;;;;;;;5095230;28;20024;-40
2022/05/07 03:00:46;;;;;;;19.77;12.30;;;;;;;;;;5095177;28;20011;-40
2022/05/07 03:03:11;;;;;;;16.60;12.15;;;;;;;;;;5094866;28;20016;-40
2022/05/07 03:05:37;;;;;;;16.52;12.23;;;;;;;;;;5093446;28;20016;-40
2022/05/07 03:08:02;;;;;;;18.65;12.07;;;;;;;;;;5094768;28;20031;-40
2022/05/07 03:10:27;;;;;;;18.92;12.77;;;;;;;;;;5094983;28;20435;-40
2022/05/07 03:12:52;;;;;;;17.38;12.25;;;;;;;;;;5094819;28;20150;-40
2022/05/07 03:15:18;;;;;;;17.65;11.77;;;;;;;;;;5094584;28;20031;-40
2022/05/07 03:17:44;;;;;;;19.35;12.63;;;;;;;;;;5094881;28;20023;-40
2022/05/07 03:20:09;;;;;;;21.20;12.77;;;;;;;;;;5094571;28;20020;-40
2022/05/07 03:22:35;;;;;;;17.23;11.88;;;;;;;;;;5094304;28;20370;-40
2022/05/07 03:25:00;;;;;;;19.08;12.45;;;;;;;;;;5094976;28;20491;-40
2022/05/07 03:27:29;;;;;;;17.70;12.05;;;;;;;;;;5094796;28;20081;-40
2022/05/07 03:29:54;;;;;;;14.85;12.05;;;;;;;;;;5094495;28;20012;-40
2022/05/07 03:32:19;;;;;;;12.93;10.63;;;;;;;;;;5094424;28;20378;-40
2022/05/07 03:34:45;;;;;;;15.77;11.43;;;;;;;;;;5094252;28;20072;-40
2022/05/07 03:37:10;;;;;;;16.42;11.50;;;;;;;;;;5094075;28;20024;-41
2022/05/07 03:39:36;;;;;;;16.30;11.18;;;;;;;;;;5094377;28;20111;-40
2022/05/07 03:42:01;;;;;;;20.30;12.00;;;;;;;;;;5094546;28;20016;-40
2022/05/07 03:44:26;;;;;;;16.15;11.20;;;;;;;;;;5094122;28;20027;-40
2022/05/07 03:46:52;;;;;;;15.07;11.57;;;;;;;;;;5094078;28;20020;-40
2022/05/07 03:49:17;;;;;;;17.58;11.15;;;;;;;;;;5094021;28;20038;-40
2022/05/07 03:54:26;;;;;;;15.32;11.10;;;;;;;;;;5093928;28;20039;-40
2022/05/07 03:56:52;;;;;;;21.05;11.00;;;;;;;;;;5093845;28;20044;-40
2022/05/07 03:59:17;;;;;;;15.35;11.18;;;;;;;;;;5094275;28;20024;-40
2022/05/07 04:01:42;;;;;;;22.27;13.80;;;;;;;;;;5093857;28;20116;-40
2022/05/07 04:04:07;;;;;;;20.33;14.00;;;;;;;;;;5093646;28;20016;-40
2022/05/07 04:06:33;;;;;;;17.45;12.57;;;;;;;;;;5093965;28;20018;-39
2022/05/07 04:08:58;;;;;;;19.35;14.10;;;;;;;;;;5094324;28;20019;-39
2022/05/07 04:11:23;;;;;;;20.60;13.15;;;;;;;;;;5093649;28;20398;-39
2022/05/07 04:13:48;;;;;;;17.45;13.05;;;;;;;;;;5093521;28;20091;-39
2022/05/07 04:16:14;;;;;;;17.23;12.52;;;;;;;;;;5093449;28;20028;-39
2022/05/07 04:18:39;;;;;;;18.80;13.48;;;;;;;;;;5093595;28;20023;-40
2022/05/07 04:21:04;;;;;;;22.42;13.77;;;;;;;;;;5093369;28;20012;-39
2022/05/07 04:23:30;;;;;;;19.70;13.45;;;;;;;;;;5093385;28;20012;-39
2022/05/07 04:25:55;;;;;;;20.88;13.45;;;;;;;;;;5093555;28;20108;-39
2022/05/07 04:28:20;;;;;;;17.20;12.10;;;;;;;;;;5093284;28;20019;-40
2022/05/07 04:30:45;;;;;;;24.50;13.48;;;;;;;;;;5093416;28;20012;-39
2022/05/07 04:33:11;;;;;;;19.52;13.15;;;;;;;;;;5093312;28;20048;-40
2022/05/07 04:35:36;;;;;;;20.02;13.20;;;;;;;;;;5092562;28;20031;-40
2022/05/07 04:38:01;;;;;;;20.08;13.65;;;;;;;;;;5093161;28;20217;-39
2022/05/07 04:40:28;;;;;;;19.70;13.55;;;;;;;;;;5093332;28;20077;-40
2022/05/07 04:42:53;;;;;;;18.58;13.18;;;;;;;;;;5093253;28;20016;-40
2022/05/07 04:45:18;;;;;;;21.23;13.95;;;;;;;;;;5093519;28;20027;-39
2022/05/07 04:47:44;;;;;;;21.00;13.55;;;;;;;;;;5093193;28;20343;-39
2022/05/07 04:50:09;;;;;;;17.60;12.75;;;;;;;;;;5092957;28;20023;-40
2022/05/07 04:52:34;;;;;;;17.77;12.18;;;;;;;;;;5092932;28;20152;-39
2022/05/07 04:55:01;;;;;;;21.83;13.45;;;;;;;;;;5093411;28;20065;-39
2022/05/07 04:57:26;;;;;;;20.85;12.93;;;;;;;;;;5092918;28;20051;-39
2022/05/07 04:59:52;;;;;;;19.92;12.32;;;;;;;;;;5091867;28;20012;-39
2022/05/07 05:02:17;;;;;;;19.08;12.80;;;;;;;;;;5093172;28;20063;-39
2022/05/07 05:04:43;;;;;;;15.57;12.13;;;;;;;;;;5092776;28;20512;-41
2022/05/07 05:07:08;;;;;;;23.08;12.95;;;;;;;;;;5093609;28;20016;-39
2022/05/07 05:09:33;;;;;;;19.58;13.23;;;;;;;;;;5093096;28;20020;-39
2022/05/07 05:11:59;;;;;;;17.13;13.23;;;;;;;;;;5093142;28;20024;-40
2022/05/07 05:17:08;;;;;;;21.58;13.23;;;;;;;;;;5092700;28;20035;-39
2022/05/07 05:19:33;;;;;;;19.90;12.60;;;;;;;;;;5092588;28;20020;-39
2022/05/07 05:21:58;;;;;;;19.23;12.90;;;;;;;;;;5093083;28;20016;-39
2022/05/07 05:24:24;;;;;;;16.58;11.48;;;;;;;;;;5092837;28;20458;-39
2022/05/07 05:26:49;;;;;;;19.52;11.27;;;;;;;;;;5092716;28;20018;-39
2022/05/07 05:29:14;;;;;;;14.68;11.38;;;;;;;;;;5093010;28;20401;-39
2022/05/07 05:31:39;;;;;;;16.25;11.90;;;;;;;;;;5092743;28;20099;-39
2022/05/07 05:34:05;;;;;;;22.35;11.65;;;;;;;;;;5092501;28;20012;-39
2022/05/07 05:36:30;;;;;;;16.05;10.90;;;;;;;;;;5092754;28;20447;-39
2022/05/07 05:38:55;;;;;;;16.83;11.60;;;;;;;;;;5092741;28;20028;-39
2022/05/07 05:41:21;;;;;;;18.65;12.32;;;;;;;;;;5092751;28;20027;-39
2022/05/07 05:43:47;;;;;;;20.02;12.95;;;;;;;;;;5092544;28;20027;-39
2022/05/07 05:46:14;;;;;;;20.65;13.57;;;;;;;;;;5092926;28;20012;-39
2022/05/07 05:48:39;;;;;;;23.08;14.50;;;;;;;;;;5096318;28;20062;-39
2022/05/07 05:51:04;;;;;;;19.30;12.43;;;;;;;;;;5096192;28;20074;-39
2022/05/07 05:53:30;;;;;;;16.57;12.73;;;;;;;;;;5096441;28;20012;-39
2022/05/07 05:55:56;;;;;;;17.20;11.80;;;;;;;;;;5095882;28;20285;-39
2022/05/07 05:58:21;;;;;;;14.68;11.23;;;;;;;;;;5096152;28;20119;-39
2022/05/07 06:00:46;;;;;;;17.67;10.18;;;;;;;;;;5096018;28;20023;-39
2022/05/07 06:03:12;;;;;;;14.43;8.43;;;;;;;;;;5096008;28;20012;-39
2022/05/07 06:05:37;;;;;;;14.90;9.03;;;;;;;;;;5096004;28;20079;-39
2022/05/07 06:08:02;;;;;;;14.63;9.00;;;;;;;;;;5096021;28;20243;-39
2022/05/07 06:10:27;;;;;;;15.93;8.80;;;;;;;;;;5096145;28;20232;-39
2022/05/07 06:12:53;;;;;;;11.45;9.10;;;;;;;;;;5095975;28;20016;-39
2022/05/07 06:15:18;;;;;;;11.10;8.25;;;;;;;;;;5095709;28;20023;-39
2022/05/07 06:17:43;;;;;;;11.43;8.20;;;;;;;;;;5095748;28;20008;-39
2022/05/07 06:20:09;;;;;;;10.50;8.50;;;;;;;;;;5095566;28;20019;-39
2022/05/07 06:22:34;;;;;;;17.05;8.35;;;;;;;;;;5095874;28;20279;-39
2022/05/07 06:27:43;;;;;;;13.52;8.80;;;;;;;;;;5095514;28;20391;-39
2022/05/07 06:30:09;;;;;;;16.67;7.95;;;;;;;;;;5095736;28;20020;-39
2022/05/07 06:32:34;;;;;;;11.10;8.00;;;;;;;;;;5095295;28;20042;-39
2022/05/07 06:35:03;;;;;;;14.75;8.93;;;;;;;;;;5095488;28;20016;-38
2022/05/07 06:37:28;;;;;;;11.10;7.73;;;;;;;;;;5095613;28;20116;-38
2022/05/07 06:39:53;;;;;;;11.63;8.10;;;;;;;;;;5095553;28;20279;-39
2022/05/07 06:42:19;;;;;;;12.57;7.00;;;;;;;;;;5095342;28;20241;-40
2022/05/07 06:44:44;;;;;;;12.18;7.85;;;;;;;;;;5095273;28;20374;-39
2022/05/07 06:47:10;;;;;;;13.05;6.18;;;;;;;;;;5095154;28;20031;-40
2022/05/07 06:49:36;;;;;;;16.17;7.07;;;;;;;;;;5095063;28;20117;-39
2022/05/07 06:52:02;;;;;;;14.82;7.07;;;;;;;;;;5095345;28;20016;-39
2022/05/07 06:54:27;;;;;;;12.20;7.65;;;;;;;;;;5095282;28;20340;-39
2022/05/07 06:56:52;;;;;;;11.77;6.50;;;;;;;;;;5094572;28;20048;-39
2022/05/07 06:59:20;;;;;;;13.98;7.20;;;;;;;;;;5094824;28;20047;-39
2022/05/07 07:01:46;;;;;;;12.80;6.20;;;;;;;;;;5094765;28;20358;-39
2022/05/07 07:04:11;;;;;;;17.13;7.32;;;;;;;;;;5094712;28;20091;-38
2022/05/07 07:06:36;;;;;;;13.18;5.93;;;;;;;;;;5095057;28;20016;-38
2022/05/07 07:09:02;;;;;;;11.73;5.77;;;;;;;;;;5095015;28;20020;-38
2022/05/07 07:11:27;;;;;;;9.43;5.45;;;;;;;;;;5094718;28;20337;-39
2022/05/07 07:13:53;;;;;;;11.85;5.88;;;;;;;;;;5094725;28;20008;-39
2022/05/07 07:16:18;;;;;;;7.30;4.55;;;;;;;;;;5094607;28;20075;-39
2022/05/07 07:18:43;;;;;;;10.95;5.10;;;;;;;;;;5094793;28;20467;-39
2022/05/07 07:21:09;;;;;;;8.57;4.93;;;;;;;;;;5094869;28;20514;-38
2022/05/07 07:23:35;;;;;;;7.68;3.85;;;;;;;;;;5094536;28;20027;-40
2022/05/07 07:26:00;;;;;;;10.57;4.38;;;;;;;;;;5094493;28;20020;-39
2022/05/07 07:28:25;;;;;;;8.27;4.20;;;;;;;;;;5094385;28;20095;-39
2022/05/07 07:30:51;;;;;;;6.95;4.20;;;;;;;;;;5094415;28;20225;-39
2022/05/07 07:33:16;;;;;;;5.88;4.60;;;;;;;;;;5094198;28;20012;-39
2022/05/07 07:35:42;;;;;;;10.85;4.60;;;;;;;;;;5094424;28;20028;-39
2022/05/07 07:38:07;;;;;;;13.02;4.80;;;;;;;;;;5094402;28;20431;-38
2022/05/07 07:40:32;;;;;;;10.43;4.80;;;;;;;;;;5094694;28;20035;-39
2022/05/07 07:42:58;;;;;;;10.27;5.15;;;;;;;;;;5092775;28;20337;-39
2022/05/07 07:48:08;;;;;;;6.70;4.55;;;;;;;;;;5094247;28;20077;-39
2022/05/07 07:50:34;;;;;;;13.90;4.88;;;;;;;;;;5094018;28;20016;-39
2022/05/07 07:53:00;;;;;;;9.65;3.70;;;;;;;;;;5094062;28;20028;-39
2022/05/07 07:55:26;;;;;;;6.28;4.40;;;;;;;;;;5093836;28;20027;-39
2022/05/07 07:57:58;;;;;;;10.23;3.88;;;;;;;;;;5094060;28;20375;-38
2022/05/07 08:00:24;;;;;;;8.30;4.03;;;;;;;;;;5093708;28;20024;-40
2022/05/07 08:02:55;;;;;;;9.98;4.55;;;;;;;;;;5093926;28;20008;-39
2022/05/07 08:05:21;;;;;;;7.22;4.50;;;;;;;;;;5093802;28;20028;-39
2022/05/07 08:13:15;;;;;;;10.13;3.70;;;;;;;;;;5093484;28;20111;-40
2022/05/07 08:15:40;;;;;;;9.52;4.15;;;;;;;;;;5093673;28;20106;-38
2022/05/07 08:18:06;;;;;;;4.50;3.47;;;;;;;;;;5093665;28;20008;-39
2022/05/07 08:20:31;;;;;;;9.23;4.22;;;;;;;;;;5093908;28;20020;-39
2022/05/07 08:22:56;;;;;;;13.73;4.20;;;;;;;;;;5093440;28;20012;-39
2022/05/07 08:25:22;;;;;;;7.35;3.10;;;;;;;;;;5093381;28;20269;-40
2022/05/07 08:27:47;;;;;;;7.30;3.45;;;;;;;;;;5093207;28;20116;-39
2022/05/07 08:30:13;;;;;;;11.05;4.22;;;;;;;;;;5093311;28;20042;-39
2022/05/07 08:32:38;;;;;;;12.88;4.28;;;;;;;;;;5093499;28;20012;-39
2022/05/07 08:35:03;;;;;;;6.87;3.57;;;;;;;;;;5093441;28;20020;-39
2022/05/07 08:37:29;;;;;;;9.07;3.78;;;;;;;;;;5093107;28;20288;-39
2022/05/07 08:40:01;;;;;;;8.40;3.55;;;;;;;;;;5093276;28;20497;-39
2022/05/07 08:42:27;;;;;;;5.55;3.22;;;;;;;;;;5092812;28;20020;-39
2022/05/07 08:44:53;;;;;;;4.82;3.63;;;;;;;;;;5093379;28;20008;-39
2022/05/07 08:47:19;;;;;;;7.35;3.45;;;;;;;;;;5093258;28;20012;-39
2022/05/07 08:49:44;;;;;;;12.50;4.10;;;;;;;;;;5093158;28;20012;-39
2022/05/07 08:52:11;;;;;;;4.80;3.10;;;;;;;;;;5093154;28;20016;-39
2022/05/07 08:54:36;;;;;;;13.15;3.70;;;;;;;;;;5093075;28;20016;-39
2022/05/07 08:57:02;;;;;;;10.13;3.50;;;;;;;;;;5093005;28;20490;-39
2022/05/07 08:59:28;;;;;;;9.13;3.13;;;;;;;;;;5093114;28;20104;-39
2022/05/07 09:01:53;;;;;;;6.60;3.30;;;;;;;;;;5093000;28;20473;-39
2022/05/07 09:04:18;;;;;;;6.38;3.03;;;;;;;;;;5093066;28;20016;-39
2022/05/07 09:06:53;;;;;;;7.77;3.00;;;;;;;;;;5093340;28;20419;-39
2022/05/07 09:09:19;;;;;;;5.05;2.75;;;;;;;;;;5092847;28;20316;-40
2022/05/07 09:11:44;;;;;;;7.30;2.97;;;;;;;;;;5092735;28;20103;-39
2022/05/07 09:14:09;;;;;;;8.45;2.72;;;;;;;;;;5092906;28;20285;-39
2022/05/07 09:16:41;;;;;;;7.75;3.50;;;;;;;;;;5092872;28;20028;-39
2022/05/07 09:19:31;;;;;;;7.50;3.08;;;;;;;;;;5092802;28;20027;-39
2022/05/07 09:22:06;;;;;;;8.37;3.30;;;;;;;;;;5095764;28;20023;-39
2022/05/07 09:24:31;;;;;;;10.93;3.25;;;;;;;;;;5097166;28;20008;-39
2022/05/07 09:26:57;;;;;;;13.52;3.47;;;;;;;;;;5097019;28;20466;-39
2022/05/07 09:29:26;;;;;;;13.88;2.65;;;;;;;;;;5096960;28;20022;-39
2022/05/07 09:31:51;;;;;;;11.10;3.78;;;;;;;;;;5096675;28;20012;-39
2022/05/07 09:37:12;;;;;;;5.32;3.17;;;;;;;;;;5096446;28;20611;-39
2022/05/07 09:39:37;;;;;;;7.10;3.20;;;;;;;;;;5096834;28;20016;-39
2022/05/07 09:42:02;;;;;;;6.80;2.90;;;;;;;;;;5096634;28;20020;-39
2022/05/07 09:44:28;;;;;;;4.53;3.03;;;;;;;;;;5096505;28;20028;-39
2022/05/07 09:46:54;;;;;;;8.15;2.78;;;;;;;;;;5096375;28;20016;-39
2022/05/07 09:49:20;;;;;;;7.85;2.95;;;;;;;;;;5096340;28;20052;-39
2022/05/07 09:51:46;;;;;;;6.30;3.03;;;;;;;;;;5096855;28;20061;-39
2022/05/07 09:59:39;;;;;;;6.95;3.22;;;;;;;;;;5096117;28;20077;-39
2022/05/07 10:02:05;;;;;;;8.17;3.20;;;;;;;;;;5096364;28;20016;-39
2022/05/07 10:04:49;;;;;;;4.05;2.55;;;;;;;;;;5096363;28;20256;-39
2022/05/07 10:07:17;;;;;;;5.93;2.92;;;;;;;;;;5096106;28;20023;-39
2022/05/07 10:10:02;;;;;;;6.32;2.45;;;;;;;;;;5096189;28;20058;-39
2022/05/07 10:12:28;;;;;;;5.47;2.92;;;;;;;;;;5096448;28;20354;-39
2022/05/07 10:15:03;;;;;;;4.97;2.72;;;;;;;;;;5096028;28;20023;-39
2022/05/07 10:17:28;;;;;;;8.63;2.75;;;;;;;;;;5095886;28;20127;-39
2022/05/07 10:20:04;;;;;;;6.78;3.10;;;;;;;;;;5095750;28;20387;-39
2022/05/07 10:22:29;;;;;;;5.78;2.63;;;;;;;;;;5095694;28;20022;-40
2022/05/07 10:25:08;;;;;;;9.02;2.40;;;;;;;;;;5095598;28;20008;-39
2022/05/07 10:27:34;;;;;;;4.97;2.50;;;;;;;;;;5095793;28;20020;-39
2022/05/07 10:30:12;;;;;;;8.73;2.42;;;;;;;;;;5095645;28;20024;-39
2022/05/07 10:33:01;;;;;;;5.25;2.55;;;;;;;;;;5094675;28;20522;-39
2022/05/07 10:35:45;;;;;;;7.03;2.88;;;;;;;;;;5095311;28;20016;-39
2022/05/07 10:38:26;;;;;;;10.02;2.80;;;;;;;;;;5095524;28;20012;-39
2022/05/07 10:41:02;;;;;;;7.07;2.80;;;;;;;;;;5095450;28;20103;-39
2022/05/07 10:43:34;;;;;;;5.82;2.70;;;;;;;;;;5095149;28;20146;-40
2022/05/07 10:46:10;;;;;;;9.38;2.55;;;;;;;;;;5095557;28;20020;-39
2022/05/07 10:48:44;;;;;;;5.35;2.40;;;;;;;;;;5095455;28;20012;-39
2022/05/07 10:51:20;;;;;;;4.07;2.40;;;;;;;;;;5095259;28;20134;-39
2022/05/07 10:53:45;;;;;;;7.18;2.70;;;;;;;;;;5095191;28;20023;-39
2022/05/07 10:56:12;;;;;;;4.75;2.70;;;;;;;;;;5094794;28;20054;-39
2022/05/07 10:58:37;;;;;;;4.13;2.40;;;;;;;;;;5095163;28;20016;-39
2022/05/07 11:01:03;;;;;;;5.22;2.85;;;;;;;;;;5095163;28;20367;-39
2022/05/07 11:03:29;;;;;;;6.18;2.33;;;;;;;;;;5094814;28;20039;-39
2022/05/07 11:06:01;;;;;;;4.22;2.33;;;;;;;;;;5095035;28;20020;-39
2022/05/07 11:08:29;;;;;;;3.95;2.30;;;;;;;;;;5094872;28;20332;-39
2022/05/07 11:11:10;;;;;;;8.23;3.05;;;;;;;;;;5094755;28;20451;-39
2022/05/07 11:13:45;;;;;;;5.45;2.67;;;;;;;;;;5095116;28;20024;-39
2022/05/07 11:16:11;;;;;;;6.60;2.85;;;;;;;;;;5094718;28;20028;-39
2022/05/07 11:18:36;;;;;;;6.18;2.42;;;;;;;;;;5094739;28;20016;-39
2022/05/07 11:21:05;;;;;;;4.53;2.55;;;;;;;;;;5094996;28;20027;-39
2022/05/07 11:23:35;;;;;;;7.37;2.80;;;;;;;;;;5094510;28;20439;-39
2022/05/07 11:26:08;;;;;;;6.40;2.70;;;;;;;;;;5094572;28;20229;-39
2022/05/07 11:28:34;;;;;;;8.77;2.78;;;;;;;;;;5094747;28;20020;-39
2022/05/07 11:31:01;;;;;;;10.18;2.95;;;;;;;;;;5094494;28;20371;-39
2022/05/07 11:33:27;;;;;;;5.68;2.60;;;;;;;;;;5094491;28;20051;-39
2022/05/07 11:36:08;;;;;;;4.40;2.60;;;;;;;;;;5094161;28;20059;-39
2022/05/07 11:38:34;;;;;;;5.03;2.20;;;;;;;;;;5094265;28;20249;-40
2022/05/07 11:41:09;;;;;;;6.35;2.53;;;;;;;;;;5094141;28;20519;-39
2022/05/07 11:46:18;;;;;;;9.35;3.00;;;;;;;;;;5093927;28;20474;-39
2022/05/07 11:48:45;;;;;;;5.60;2.95;;;;;;;;;;5094418;28;20012;-39
2022/05/07 11:51:10;;;;;;;5.63;2.38;;;;;;;;;;5094135;28;20016;-39
2022/05/07 11:53:35;;;;;;;10.60;3.00;;;;;;;;;;5094137;28;20019;-39
2022/05/07 11:56:08;;;;;;;7.32;2.63;;;;;;;;;;5093975;28;20051;-39
2022/05/07 11:58:43;;;;;;;8.30;3.20;;;;;;;;;;5093914;28;20020;-39
2022/05/07 12:01:21;;;;;;;7.97;2.53;;;;;;;;;;5094155;28;20051;-39
2022/05/07 12:03:47;;;;;;;7.72;2.47;;;;;;;;;;5093939;28;20024;-39
2022/05/07 12:06:22;;;;;;;6.20;2.55;;;;;;;;;;5093831;28;20068;-39
2022/05/07 12:08:47;;;;;;;5.22;2.88;;;;;;;;;;5093846;28;20494;-39
2022/05/07 12:11:13;;;;;;;7.57;2.77;;;;;;;;;;5092305;28;20087;-40
2022/05/07 12:13:38;;;;;;;6.70;2.70;;;;;;;;;;5093646;28;20350;-39
2022/05/07 12:18:48;;;;;;;8.48;2.33;;;;;;;;;;5093508;28;20232;-39
2022/05/07 12:21:14;;;;;;;10.40;2.75;;;;;;;;;;5093651;28;20019;-39
2022/05/07 12:31:52;;;;;;;4.97;2.45;;;;;;;;;;5093681;28;20481;-39
2022/05/07 12:34:18;;;;;;;5.40;2.83;;;;;;;;;;5093137;28;20084;-40
2022/05/07 12:36:43;;;;;;;4.35;2.72;;;;;;;;;;5093420;28;20039;-39
2022/05/07 12:39:08;;;;;;;6.20;2.57;;;;;;;;;;5093373;28;20043;-40
2022/05/07 12:41:34;;;;;;;5.50;2.53;;;;;;;;;;5093146;28;20229;-39
2022/05/07 12:44:00;;;;;;;5.20;2.73;;;;;;;;;;5093099;28;20229;-39
2022/05/07 12:46:25;;;;;;;7.63;2.67;;;;;;;;;;5093113;28;20091;-39
2022/05/07 12:48:51;;;;;;;7.05;2.95;;;;;;;;;;5092942;28;20008;-39
2022/05/07 12:51:17;;;;;;;6.00;2.97;;;;;;;;;;5092955;28;20483;-39
2022/05/07 12:53:42;;;;;;;8.32;3.00;;;;;;;;;;5093092;28;20020;-39
2022/05/07 12:56:07;;;;;;;10.18;3.20;;;;;;;;;;5092561;28;20125;-39
2022/05/07 12:58:33;;;;;;;13.85;3.22;;;;;;;;;;5092989;28;20023;-39
2022/05/07 13:00:58;;;;;;;9.77;3.33;;;;;;;;;;5092854;28;20012;-39
2022/05/07 13:03:24;;;;;;;5.30;2.67;;;;;;;;;;5092905;28;20020;-39
2022/05/07 13:05:49;;;;;;;2.60;2.40;;;;;;;;;;5092780;28;20786;-39
2022/05/07 13:08:14;;;;;;;3.15;2.38;;;;;;;;;;5093171;28;20020;-39
2022/05/07 13:10:40;;;;;;;7.95;2.55;;;;;;;;;;5092999;28;20023;-39
2022/05/07 13:13:06;;;;;;;8.25;3.20;;;;;;;;;;5092931;28;20020;-39
2022/05/07 13:15:31;;;;;;;3.83;2.35;;;;;;;;;;5092574;28;20335;-39
2022/05/07 13:17:57;;;;;;;3.97;2.63;;;;;;;;;;5092823;28;20016;-39
2022/05/07 13:20:23;;;;;;;6.40;2.38;;;;;;;;;;5092478;28;20236;-39
2022/05/07 13:22:48;;;;;;;7.63;2.78;;;;;;;;;;5092916;28;20020;-39
2022/05/07 13:25:13;;;;;;;7.22;2.55;;;;;;;;;;5092826;28;20026;-39
2022/05/07 13:27:39;;;;;;;4.90;2.40;;;;;;;;;;5092800;28;20358;-39
2022/05/07 13:30:05;;;;;;;4.65;2.53;;;;;;;;;;5092796;28;20344;-39
2022/05/07 13:32:30;;;;;;;8.38;2.35;;;;;;;;;;5092747;28;20020;-39
2022/05/07 13:34:56;;;;;;;7.68;2.67;;;;;;;;;;5092750;28;20024;-39
2022/05/07 13:37:21;;;;;;;5.32;2.90;;;;;;;;;;5092665;28;20060;-39
2022/05/07 13:39:46;;;;;;;5.82;2.45;;;;;;;;;;5092939;28;20050;-39
2022/05/07 13:42:12;;;;;;;4.73;2.60;;;;;;;;;;5093041;28;20015;-39
2022/05/07 13:44:37;;;;;;;5.25;2.60;;;;;;;;;;5092661;28;20323;-39
2022/05/07 13:47:04;;;;;;;5.15;2.55;;;;;;;;;;5092485;28;20024;-39
2022/05/07 13:49:29;;;;;;;3.28;2.50;;;;;;;;;;5092476;28;20016;-40
2022/05/07 13:51:55;;;;;;;5.25;2.58;;;;;;;;;;5092430;28;20428;-39
2022/05/07 13:54:20;;;;;;;5.38;2.75;;;;;;;;;;5092666;28;20341;-39
2022/05/07 13:56:45;;;;;;;7.97;2.92;;;;;;;;;;5092316;28;20118;-39
2022/05/07 13:59:11;;;;;;;7.57;2.90;;;;;;;;;;5092533;28;20016;-39
2022/05/07 14:01:36;;;;;;;9.00;2.60;;;;;;;;;;5092449;28;20324;-39
2022/05/07 14:04:02;;;;;;;4.55;2.50;;;;;;;;;;5092301;28;20019;-40
2022/05/07 14:06:27;;;;;;;11.43;2.63;;;;;;;;;;5092131;28;20016;-39
2022/05/07 14:08:52;;;;;;;7.57;2.73;;;;;;;;;;5095193;28;20316;-39
2022/05/07 14:11:18;;;;;;;5.68;2.85;;;;;;;;;;5096186;28;20237;-39
2022/05/07 14:13:44;;;;;;;15.52;3.47;;;;;;;;;;5095889;28;20494;-40
2022/05/07 14:16:09;;;;;;;7.65;3.17;;;;;;;;;;5095797;28;20398;-39
2022/05/07 14:18:35;;;;;;;12.25;3.42;;;;;;;;;;5095911;28;20024;-39
2022/05/07 14:21:01;;;;;;;6.43;3.88;;;;;;;;;;5095786;28;20328;-40
2022/05/07 14:23:26;;;;;;;11.57;2.65;;;;;;;;;;5096294;28;20457;-40
2022/05/07 14:25:51;;;;;;;3.57;2.40;;;;;;;;;;5095989;28;20008;-39
2022/05/07 14:28:16;;;;;;;6.10;3.10;;;;;;;;;;5095871;28;20229;-39
2022/05/07 14:30:42;;;;;;;5.87;2.47;;;;;;;;;;5095674;28;20579;-39
2022/05/07 14:33:08;;;;;;;2.65;2.15;;;;;;;;;;5095587;28;20320;-40
2022/05/07 14:35:36;;;;;;;4.68;2.10;;;;;;;;;;5095371;28;20061;-40
2022/05/07 14:38:01;;;;;;;4.72;2.65;;;;;;;;;;5095643;28;20016;-39
2022/05/07 14:40:31;;;;;;;5.75;2.50;;;;;;;;;;5095591;28;20501;-39
2022/05/07 14:42:57;;;;;;;6.65;2.20;;;;;;;;;;5095352;28;20012;-40
2022/05/07 14:45:23;;;;;;;4.13;2.50;;;;;;;;;;5095408;28;20027;-39
2022/05/07 14:47:48;;;;;;;6.13;2.28;;;;;;;;;;5095601;28;20107;-39
2022/05/07 14:50:14;;;;;;;2.85;2.22;;;;;;;;;;5095100;28;20020;-40
2022/05/07 14:52:39;;;;;;;5.60;2.35;;;;;;;;;;5095378;28;20016;-39
2022/05/07 14:55:05;;;;;;;3.35;2.15;;;;;;;;;;5095384;28;20071;-40
2022/05/07 14:57:30;;;;;;;4.43;2.33;;;;;;;;;;5095200;28;20485;-40
2022/05/07 14:59:55;;;;;;;5.18;2.60;;;;;;;;;;5095202;28;20016;-39
2022/05/07 15:02:20;;;;;;;5.07;2.23;;;;;;;;;;5094894;28;20027;-39
2022/05/07 15:04:46;;;;;;;9.10;3.30;;;;;;;;;;5094994;28;20290;-40
2022/05/07 15:07:11;;;;;;;7.73;3.13;;;;;;;;;;5094938;28;20287;-40
2022/05/07 15:12:20;;;;;;;9.27;2.92;;;;;;;;;;5094662;28;20454;-40
2022/05/07 15:14:46;;;;;;;7.17;2.80;;;;;;;;;;5094819;28;20008;-39